Time;durP1;ratioP1;P1;durP2;ratioP2;P2;SDS_P1;SDS_P2;PMS_P1;PMS_P2;Temp;Humidity;BMP_temperature;BMP_pressure;BME280_temperature;BME280_humidity;BME280_pressure;Samples;Min_cycle;Max_cycle;Signal;HPM_P1;HPM_P2
2023/05/14 00:00:52;;;;;;;6.25;5.65;;;8.60;1.00;9.20;94076.00;;;;7393980;19;20644;-75
2023/05/14 00:03:20;;;;;;;6.63;5.55;;;8.60;1.00;9.10;94072.00;;;;7395248;19;20622;-75
2023/05/14 00:06:03;;;;;;;5.97;5.38;;;8.50;1.00;9.00;94080.00;;;;7401571;19;20200;-75
2023/05/14 00:08:32;;;;;;;5.82;5.22;;;8.50;1.00;8.90;94067.00;;;;7403768;19;20155;-75
2023/05/14 00:11:07;;;;;;;5.77;5.17;;;8.40;1.00;8.90;94059.00;;;;7402267;19;20132;-78
2023/05/14 00:13:36;;;;;;;5.93;5.05;;;8.40;35.00;8.90;94035.00;;;;7403343;19;20141;-75
2023/05/14 00:16:10;;;;;;;6.32;5.57;;;8.30;54.70;8.80;94057.00;;;;7401979;19;20581;-77
2023/05/14 00:18:38;;;;;;;6.60;5.93;;;8.20;14.30;8.80;94034.00;;;;7402252;19;20140;-76
2023/05/14 00:21:12;;;;;;;7.70;6.18;;;8.20;99.50;8.80;94065.00;;;;7403161;19;20616;-75
2023/05/14 00:23:39;;;;;;;6.10;5.05;;;8.10;99.90;8.70;94052.00;;;;7400775;19;20145;-74
2023/05/14 00:26:14;;;;;;;7.57;5.97;;;8.00;99.90;8.70;94072.00;;;;7401403;19;20155;-75
2023/05/14 00:28:48;;;;;;;8.17;5.90;;;7.90;99.90;8.60;94014.00;;;;7401420;19;20634;-74
2023/05/14 00:31:22;;;;;;;7.33;6.17;;;7.80;99.90;8.50;94062.00;;;;7399416;19;20154;-76
2023/05/14 00:33:49;;;;;;;9.23;6.20;;;7.70;99.90;8.40;94010.00;;;;7397472;19;20133;-74
2023/05/14 00:36:23;;;;;;;8.13;5.80;;;7.70;99.90;8.20;94054.00;;;;7402198;19;20464;-75
2023/05/14 00:38:59;;;;;;;7.20;6.50;;;7.60;99.90;8.30;94046.00;;;;7401585;19;20583;-76
2023/05/14 00:41:33;;;;;;;7.87;6.43;;;7.50;99.90;8.10;94005.00;;;;7402340;19;20158;-76
2023/05/14 00:44:00;;;;;;;8.60;6.30;;;7.40;1.00;8.00;94022.00;;;;7399876;19;20136;-75
2023/05/14 00:46:34;;;;;;;6.90;6.20;;;7.30;1.00;7.90;94026.00;;;;7399611;19;20157;-75
2023/05/14 00:49:03;;;;;;;8.53;6.40;;;7.20;1.00;7.80;93997.00;;;;7400137;19;20140;-76
2023/05/14 00:51:38;;;;;;;6.80;6.07;;;7.10;1.00;7.80;94043.00;;;;7400843;19;20121;-76
2023/05/14 00:54:16;;;;;;;7.80;6.40;;;7.00;1.00;7.70;93980.00;;;;7400821;19;20662;-75
2023/05/14 00:56:50;;;;;;;8.07;6.60;;;7.00;1.00;7.70;93986.00;;;;7399298;19;20766;-77
2023/05/14 00:59:17;;;;;;;8.50;6.57;;;7.00;1.00;7.70;94017.00;;;;7398701;19;20504;-77
2023/05/14 01:02:06;;;;;;;8.17;7.00;;;7.10;1.00;7.60;94034.00;;;;7396113;19;20168;-79
2023/05/14 01:04:40;;;;;;;7.88;7.07;;;7.00;1.00;7.60;94018.00;;;;7399372;19;20143;-78
2023/05/14 01:07:44;;;;;;;9.37;6.77;;;7.00;1.00;7.60;94023.00;;;;7399577;19;20473;-79
2023/05/14 01:10:23;;;;;;;10.40;7.27;;;7.00;1.00;7.60;94011.00;;;;7399227;19;20167;-78
2023/05/14 01:13:21;;;;;;;9.27;7.90;;;6.90;1.00;7.50;94032.00;;;;7396129;19;20600;-76
2023/05/14 01:15:57;;;;;;;8.47;7.57;;;6.80;12.80;7.50;94031.00;;;;7399401;19;20469;-76
2023/05/14 01:18:32;;;;;;;10.77;8.00;;;6.80;29.80;7.60;94022.00;;;;7398109;19;20634;-79
2023/05/14 01:21:39;;;;;;;11.47;8.40;;;6.80;99.90;7.50;94015.00;;;;7400550;19;20163;-79
2023/05/14 01:24:07;;;;;;;9.87;8.53;;;6.80;99.90;7.50;94015.00;;;;7398628;19;20141;-79
2023/05/14 01:26:41;;;;;;;10.90;7.83;;;6.80;99.90;7.50;94020.00;;;;7399140;19;20134;-78
2023/05/14 01:29:27;;;;;;;12.90;9.50;;;6.80;99.90;7.50;94014.00;;;;7399091;19;20167;-78
2023/05/14 01:32:06;;;;;;;10.40;9.30;;;6.80;99.90;7.50;94025.00;;;;7398774;19;20160;-78
2023/05/14 01:34:37;;;;;;;12.57;9.40;;;6.80;99.90;7.60;93991.00;;;;7398470;19;20169;-79
2023/05/14 01:37:12;;;;;;;12.83;10.47;;;6.80;99.90;7.70;94024.00;;;;7399385;19;20136;-76
2023/05/14 01:39:41;;;;;;;12.23;10.33;;;6.90;99.90;7.80;94024.00;;;;7398569;19;20175;-76
2023/05/14 01:42:15;;;;;;;11.67;9.83;;;7.00;99.90;7.80;93996.00;;;;7400529;19;20112;-76
2023/05/14 01:44:49;;;;;;;14.73;11.17;;;7.10;99.90;7.90;93985.00;;;;7398687;19;20163;-78
2023/05/14 01:47:23;;;;;;;11.93;9.90;;;7.20;99.90;7.90;93995.00;;;;7398242;19;20607;-78
2023/05/14 01:49:57;;;;;;;17.23;10.23;;;7.30;99.90;7.90;93993.00;;;;7399814;19;20161;-78
2023/05/14 01:52:25;;;;;;;11.60;9.93;;;7.40;99.90;7.90;93998.00;;;;7397674;19;20117;-78
2023/05/14 01:55:06;;;;;;;10.40;8.53;;;7.40;99.90;7.80;94007.00;;;;7397403;19;20207;-76
2023/05/14 01:57:40;;;;;;;9.00;8.00;;;7.40;99.90;7.80;93986.00;;;;7398441;19;20600;-78
2023/05/14 02:00:14;;;;;;;12.57;8.87;;;7.30;99.90;7.90;93983.00;;;;7397336;19;20152;-79
2023/05/14 02:02:42;;;;;;;13.00;9.37;;;7.30;99.90;7.90;94001.00;;;;7398643;19;20172;-79
2023/05/14 02:05:23;;;;;;;10.83;8.67;;;7.20;99.90;7.90;93994.00;;;;7397734;19;20144;-78
2023/05/14 02:07:57;;;;;;;11.87;8.93;;;7.20;99.90;8.00;94003.00;;;;7396400;19;20448;-79
2023/05/14 02:10:31;;;;;;;9.57;8.43;;;7.30;99.90;8.00;93998.00;;;;7396870;19;20153;-79
2023/05/14 02:13:05;;;;;;;11.13;8.97;;;7.40;99.90;8.10;93994.00;;;;7397322;19;20132;-79
2023/05/14 02:15:39;;;;;;;12.57;9.83;;;7.50;99.90;8.20;93980.00;;;;7399465;19;20598;-79
2023/05/14 02:18:13;;;;;;;11.10;9.82;;;7.60;99.90;8.30;94015.00;;;;7397339;19;20133;-79
2023/05/14 02:20:40;;;;;;;14.13;9.77;;;7.70;99.90;8.40;93991.00;;;;7396261;19;20165;-79
2023/05/14 02:23:14;;;;;;;14.03;11.27;;;7.70;99.90;8.60;94006.00;;;;7396796;19;20169;-79
2023/05/14 02:25:41;;;;;;;13.33;11.13;;;7.70;99.90;8.60;93992.00;;;;7398552;19;20133;-79
2023/05/14 02:28:15;;;;;;;12.60;10.00;;;7.70;99.90;8.60;93977.00;;;;7398477;19;20523;-79
2023/05/14 02:30:42;;;;;;;11.98;9.38;;;7.70;99.90;8.60;94009.00;;;;7399057;19;20472;-79
2023/05/14 02:33:16;;;;;;;11.87;9.73;;;7.70;99.90;8.60;94004.00;;;;7395259;19;20186;-78
2023/05/14 02:35:43;;;;;;;13.90;10.93;;;7.70;99.90;8.60;93987.00;;;;7396492;19;20150;-78
2023/05/14 02:38:17;;;;;;;17.48;11.40;;;7.70;1.00;8.60;94007.00;;;;7396760;19;20163;-78
2023/05/14 02:40:51;;;;;;;12.60;10.23;;;7.70;1.00;8.60;93992.00;;;;7398789;19;20133;-79
2023/05/14 02:43:25;;;;;;;17.13;11.75;;;7.70;1.00;8.60;93981.00;;;;7398452;19;20121;-76
2023/05/14 02:45:59;;;;;;;13.55;11.07;;;7.70;1.00;8.60;94014.00;;;;7396531;19;20152;-79
2023/05/14 02:48:33;;;;;;;13.38;10.82;;;7.70;1.00;8.60;94009.00;;;;7395184;19;20187;-78
2023/05/14 02:51:07;;;;;;;17.67;10.87;;;7.70;1.00;8.60;93992.00;;;;7398751;19;20137;-78
2023/05/14 02:53:34;;;;;;;13.18;10.10;;;7.70;1.00;8.60;93974.00;;;;7394687;19;20156;-78
2023/05/14 02:56:09;;;;;;;11.33;9.93;;;7.70;1.00;8.60;93981.00;;;;7395930;19;20149;-78
2023/05/14 02:58:36;;;;;;;15.27;9.40;;;7.70;1.00;8.60;94003.00;;;;7397302;19;20139;-78
2023/05/14 03:01:10;;;;;;;13.37;10.13;;;7.70;1.00;8.60;93996.00;;;;7394939;19;20144;-78
2023/05/14 03:03:50;;;;;;;10.70;9.60;;;7.70;1.00;8.50;94007.00;;;;7394498;19;20175;-78
2023/05/14 03:06:24;;;;;;;11.07;9.13;;;7.80;1.00;8.50;93978.00;;;;7396126;19;20133;-78
2023/05/14 03:08:51;;;;;;;9.93;8.77;;;7.80;1.00;8.50;93999.00;;;;7395495;19;20474;-78
2023/05/14 03:11:25;;;;;;;13.30;11.02;;;7.80;1.00;8.50;94001.00;;;;7396148;19;20637;-78
2023/05/14 03:13:52;;;;;;;12.80;9.50;;;7.90;1.00;8.50;93984.00;;;;7397488;19;20454;-77
2023/05/14 03:16:19;;;;;;;12.17;10.70;;;7.90;1.00;8.50;93997.00;;;;7394562;19;20476;-78
2023/05/14 03:18:53;;;;;;;14.53;10.30;;;8.00;1.00;8.40;93989.00;;;;7390029;19;20132;-78
2023/05/14 03:21:20;;;;;;;11.10;9.13;;;8.00;1.00;8.30;93976.00;;;;7385860;19;20461;-76
2023/05/14 03:23:54;;;;;;;11.80;9.87;;;8.10;1.00;8.50;94005.00;;;;7397286;19;20477;-77
2023/05/14 03:26:24;;;;;;;14.87;9.87;;;8.00;1.00;8.50;93977.00;;;;7394944;19;20169;-77
2023/05/14 03:28:57;;;;;;;13.60;9.93;;;8.00;99.90;8.60;93971.00;;;;7396569;19;20133;-73
2023/05/14 03:31:24;;;;;;;13.60;9.53;;;8.00;99.90;8.60;93972.00;;;;7396741;19;20137;-73
2023/05/14 03:33:58;;;;;;;13.60;9.98;;;8.00;99.90;8.60;94001.00;;;;7395438;19;20166;-74
2023/05/14 03:36:32;;;;;;;11.07;9.90;;;8.00;99.90;8.60;93995.00;;;;7393530;19;20525;-73
2023/05/14 03:39:06;;;;;;;11.47;9.50;;;8.00;99.90;8.50;94004.00;;;;7398370;19;20133;-73
2023/05/14 03:41:40;;;;;;;12.97;9.70;;;8.10;99.90;8.50;93966.00;;;;7401813;19;20165;-73
2023/05/14 03:44:07;;;;;;;9.87;8.37;;;8.00;99.90;8.50;93975.00;;;;7401621;19;20173;-73
2023/05/14 03:46:34;;;;;;;9.73;8.70;;;8.00;99.90;8.40;93973.00;;;;7401335;19;20463;-73
2023/05/14 03:49:08;;;;;;;9.98;8.30;;;8.00;99.90;8.40;93975.00;;;;7402323;19;20153;-73
2023/05/14 03:51:35;;;;;;;10.73;8.60;;;7.90;99.90;8.40;93976.00;;;;7402289;19;20125;-73
2023/05/14 03:54:09;;;;;;;12.25;8.85;;;7.90;99.90;8.30;93973.00;;;;7402710;19;20144;-73
2023/05/14 03:56:36;;;;;;;10.38;8.27;;;7.90;99.90;8.40;93948.00;;;;7402437;19;20133;-73
2023/05/14 03:59:10;;;;;;;10.70;8.57;;;7.90;99.90;8.40;93984.00;;;;7403757;19;20149;-73
2023/05/14 04:01:37;;;;;;;9.80;7.87;;;7.90;84.90;8.50;93976.00;;;;7400965;19;20165;-73
2023/05/14 04:04:18;;;;;;;10.18;8.40;;;7.80;86.10;8.50;93947.00;;;;7400980;19;20471;-74
2023/05/14 04:06:58;;;;;;;10.37;8.40;;;7.80;99.90;8.50;93984.00;;;;7401510;19;20136;-74
2023/05/14 04:09:25;;;;;;;10.67;8.70;;;7.70;99.90;8.60;93985.00;;;;7403490;19;20523;-73
2023/05/14 04:11:59;;;;;;;10.38;8.18;;;7.70;99.90;8.60;93966.00;;;;7400738;19;20146;-73
2023/05/14 04:14:33;;;;;;;13.53;8.93;;;7.80;99.90;8.60;93976.00;;;;7401530;19;20136;-73
2023/05/14 04:17:07;;;;;;;11.35;9.63;;;7.80;99.90;8.70;93982.00;;;;7402645;19;20820;-73
2023/05/14 04:19:34;;;;;;;13.95;11.60;;;7.80;99.90;8.90;93992.00;;;;7401782;19;20600;-73
2023/05/14 04:22:01;;;;;;;16.90;12.27;;;7.90;99.90;8.80;93988.00;;;;7401331;19;20178;-73
2023/05/14 04:24:35;;;;;;;16.00;11.38;;;7.90;99.90;8.70;93993.00;;;;7400656;19;20128;-73
2023/05/14 04:27:02;;;;;;;14.80;12.02;;;7.90;99.90;8.80;93994.00;;;;7400947;19;20125;-73
2023/05/14 04:29:36;;;;;;;15.60;12.47;;;7.90;99.90;8.90;93998.00;;;;7402775;19;20117;-73
2023/05/14 04:32:03;;;;;;;17.65;11.98;;;7.90;99.90;8.80;93999.00;;;;7401398;19;20141;-73
2023/05/14 04:34:31;;;;;;;15.30;12.93;;;7.90;99.90;8.60;93983.00;;;;7400777;19;20145;-73
2023/05/14 04:37:05;;;;;;;14.53;12.03;;;8.00;99.90;8.90;93970.00;;;;7400305;19;20166;-73
2023/05/14 04:39:39;;;;;;;15.10;11.20;;;8.00;99.90;8.70;93976.00;;;;7396547;19;20157;-73
2023/05/14 04:42:06;;;;;;;11.88;10.43;;;8.00;99.90;8.80;93975.00;;;;7399527;19;20506;-73
2023/05/14 04:44:35;;;;;;;16.15;11.60;;;8.00;99.90;8.80;93990.00;;;;7399795;19;20144;-74
2023/05/14 04:47:09;;;;;;;15.60;11.27;;;8.00;99.90;8.90;93983.00;;;;7400013;19;20218;-74
2023/05/14 04:49:36;;;;;;;15.48;12.05;;;8.00;99.90;9.00;93987.00;;;;7401247;19;20153;-74
2023/05/14 04:52:10;;;;;;;19.27;11.98;;;8.00;99.90;8.90;93977.00;;;;7393848;19;22357;-75
2023/05/14 04:54:44;;;;;;;15.38;12.13;;;8.10;99.90;9.00;93983.00;;;;7398726;19;20212;-75
2023/05/14 04:57:11;;;;;;;15.95;12.35;;;8.10;91.20;9.10;93987.00;;;;7400356;19;20177;-75
2023/05/14 04:59:45;;;;;;;14.32;11.50;;;8.20;68.70;9.10;93988.00;;;;7400527;19;20190;-75
2023/05/14 05:02:12;;;;;;;15.45;11.95;;;8.20;58.50;9.10;93992.00;;;;7398081;19;20623;-76
2023/05/14 05:04:53;;;;;;;14.52;11.93;;;8.30;26.10;9.30;93968.00;;;;7401294;19;20141;-75
2023/05/14 05:07:27;;;;;;;14.73;11.50;;;8.30;1.00;9.20;93984.00;;;;7395992;19;22007;-75
2023/05/14 05:10:02;;;;;;;14.45;11.65;;;8.40;1.00;9.30;93981.00;;;;7400381;19;20140;-75
2023/05/14 05:12:29;;;;;;;13.75;11.18;;;8.50;1.00;9.30;93974.00;;;;7398732;19;20733;-75
2023/05/14 05:15:04;;;;;;;12.93;11.07;;;8.60;1.00;9.30;93944.00;;;;7399661;19;20153;-75
2023/05/14 05:17:31;;;;;;;14.70;10.57;;;8.70;99.90;9.60;93974.00;;;;7384044;19;20151;-73
2023/05/14 05:19:58;;;;;;;14.85;11.25;;;8.80;99.90;9.70;93978.00;;;;7376981;19;20640;-73
2023/05/14 05:22:32;;;;;;;14.85;11.13;;;9.00;99.90;9.90;93971.00;;;;7384176;19;20176;-73
2023/05/14 05:24:59;;;;;;;11.05;9.85;;;9.00;1.00;10.00;93961.00;;;;7382979;19;20152;-71
2023/05/14 05:27:33;;;;;;;12.70;10.77;;;9.10;1.00;10.30;93964.00;;;;7383964;19;20127;-71
2023/05/14 05:30:02;;;;;;;13.23;10.50;;;9.20;1.00;10.40;93973.00;;;;7383721;19;20169;-73
2023/05/14 05:32:37;;;;;;;16.67;10.38;;;9.30;1.00;10.50;93979.00;;;;7384969;19;20150;-73
2023/05/14 05:35:05;;;;;;;16.50;10.30;;;9.40;1.40;10.50;93966.00;;;;7380978;19;20148;-74
2023/05/14 05:37:40;;;;;;;11.15;9.32;;;9.50;99.90;10.90;93972.00;;;;7384614;19;20188;-73
2023/05/14 05:40:09;;;;;;;9.23;8.27;;;9.60;99.90;10.80;93968.00;;;;7383293;19;20149;-73
2023/05/14 05:42:43;;;;;;;11.35;9.68;;;9.70;99.90;10.90;93981.00;;;;7383449;19;20158;-72
2023/05/14 05:45:17;;;;;;;12.23;9.88;;;9.80;99.90;11.10;93964.00;;;;7384465;19;20129;-74
2023/05/14 05:47:51;;;;;;;12.07;8.75;;;9.90;99.90;10.80;93963.00;;;;7379923;19;20498;-72
2023/05/14 05:50:19;;;;;;;10.98;9.82;;;10.00;1.00;11.10;93963.00;;;;7382766;19;20187;-72
2023/05/14 05:52:52;;;;;;;10.80;9.65;;;10.00;1.00;11.10;93956.00;;;;7384492;19;20128;-72
2023/05/14 05:55:19;;;;;;;10.18;8.80;;;10.10;1.00;11.10;93949.00;;;;7379077;19;20149;-72
2023/05/14 05:57:53;;;;;;;11.77;9.90;;;10.20;1.00;11.30;93954.00;;;;7373964;19;20145;-73
2023/05/14 06:00:24;;;;;;;12.20;9.05;;;10.20;1.00;11.40;93971.00;;;;7381129;19;20156;-73
2023/05/14 06:02:59;;;;;;;10.90;9.02;;;10.30;99.90;11.40;93958.00;;;;7378934;19;20175;-72
2023/05/14 06:05:34;;;;;;;13.52;9.07;;;10.30;99.90;11.40;93970.00;;;;7382844;19;20178;-72
2023/05/14 06:08:09;;;;;;;8.68;7.78;;;10.40;99.90;11.50;93981.00;;;;7378223;19;20164;-72
2023/05/14 06:10:37;;;;;;;13.70;8.98;;;10.40;99.90;11.60;93974.00;;;;7380082;19;21533;-72
2023/05/14 06:13:13;;;;;;;10.00;8.35;;;10.50;99.90;11.60;93959.00;;;;7381129;19;20124;-72
2023/05/14 06:15:47;;;;;;;8.63;7.72;;;10.50;57.30;11.50;93959.00;;;;7381893;19;20490;-73
2023/05/14 06:18:21;;;;;;;9.73;8.48;;;10.50;32.70;11.60;93970.00;;;;7380232;19;20556;-73
2023/05/14 06:20:56;;;;;;;11.13;8.93;;;10.60;31.60;11.80;93973.00;;;;7379856;19;20261;-72
2023/05/14 06:23:32;;;;;;;9.93;8.40;;;10.70;1.00;11.70;93956.00;;;;7384242;19;20152;-72
2023/05/14 06:26:00;;;;;;;13.07;8.60;;;10.70;1.00;11.60;93980.00;;;;7381642;19;20184;-72
2023/05/14 06:28:34;;;;;;;9.15;7.93;;;10.70;1.00;11.80;93962.00;;;;7378769;19;20184;-75
2023/05/14 06:31:02;;;;;;;9.38;7.80;;;10.80;1.00;11.90;93956.00;;;;7377485;19;20133;-74
2023/05/14 06:33:36;;;;;;;13.93;8.57;;;10.90;1.00;12.30;93960.00;;;;7382316;19;20208;-74
2023/05/14 06:36:10;;;;;;;9.73;8.65;;;11.00;1.00;12.40;93943.00;;;;7379957;19;20518;-74
2023/05/14 06:38:38;;;;;;;8.80;7.90;;;11.10;1.00;12.30;93964.00;;;;7380205;19;20141;-73
2023/05/14 06:41:12;;;;;;;11.73;8.02;;;11.20;99.90;12.30;93948.00;;;;7380872;19;20143;-74
2023/05/14 06:43:40;;;;;;;8.80;7.90;;;11.20;99.90;12.20;93965.00;;;;7377719;19;20474;-75
2023/05/14 06:46:15;;;;;;;8.77;7.88;;;11.30;50.10;12.40;93952.00;;;;7378880;19;20191;-74
2023/05/14 06:48:43;;;;;;;11.77;8.75;;;11.40;1.00;12.60;93963.00;;;;7380069;19;20157;-74
2023/05/14 06:51:17;;;;;;;8.98;6.97;;;11.40;1.00;12.60;93954.00;;;;7378716;19;20599;-74
2023/05/14 06:53:46;;;;;;;8.13;7.32;;;11.50;1.00;12.70;93978.00;;;;7377230;19;20157;-75
2023/05/14 06:56:21;;;;;;;9.23;7.57;;;11.60;1.00;12.60;93985.00;;;;7377662;19;20128;-73
2023/05/14 06:58:49;;;;;;;12.30;8.20;;;11.60;99.90;12.10;93981.00;;;;7378648;19;20140;-74
2023/05/14 07:01:25;;;;;;;9.98;8.25;;;11.60;99.90;12.50;93984.00;;;;7378716;19;20125;-74
2023/05/14 07:03:59;;;;;;;9.73;8.18;;;11.50;99.90;12.60;93948.00;;;;7379545;19;20191;-74
2023/05/14 07:06:39;;;;;;;10.63;8.10;;;11.60;99.90;12.80;93972.00;;;;7376624;19;20134;-74
2023/05/14 07:09:14;;;;;;;10.20;8.35;;;11.60;99.90;12.80;93977.00;;;;7379382;19;20220;-74
2023/05/14 07:11:42;;;;;;;12.43;8.98;;;11.70;99.90;12.90;93958.00;;;;7382567;19;20121;-74
2023/05/14 07:14:16;;;;;;;10.05;7.90;;;11.80;99.90;12.80;93950.00;;;;7384318;19;20143;-74
2023/05/14 07:16:50;;;;;;;9.70;7.80;;;11.80;99.90;13.00;93978.00;;;;7383550;19;20151;-74
2023/05/14 07:19:27;;;;;;;9.32;8.25;;;11.90;99.90;13.00;93969.00;;;;7383497;19;20151;-73
2023/05/14 07:22:01;;;;;;;8.40;7.50;;;12.10;99.90;13.00;93985.00;;;;7384988;19;20141;-75
2023/05/14 07:24:35;;;;;;;9.43;8.43;;;12.10;99.90;12.90;93960.00;;;;7385267;19;20131;-73
2023/05/14 07:27:03;;;;;;;9.30;7.82;;;12.10;42.20;13.00;93960.00;;;;7387681;19;20161;-73
2023/05/14 07:29:38;;;;;;;9.30;7.65;;;12.10;35.10;13.00;93970.00;;;;7389642;19;20144;-73
2023/05/14 07:32:06;;;;;;;9.40;8.40;;;12.10;1.70;13.30;93971.00;;;;7379374;19;20149;-73
2023/05/14 07:34:41;;;;;;;8.60;7.70;;;12.30;69.70;13.50;93954.00;;;;7385163;19;20133;-73
2023/05/14 07:37:12;;;;;;;9.70;7.38;;;12.40;1.00;13.60;93953.00;;;;7384838;19;20499;-74
2023/05/14 07:39:46;;;;;;;9.35;8.27;;;12.50;1.00;13.70;93941.00;;;;7384963;19;20144;-73
2023/05/14 07:42:14;;;;;;;8.02;7.10;;;12.60;1.00;13.30;93952.00;;;;7384396;19;20129;-73
2023/05/14 07:45:03;;;;;;;8.90;7.43;;;12.60;1.00;13.50;93961.00;;;;7385831;19;20204;-73
2023/05/14 07:47:39;;;;;;;9.43;7.45;;;12.70;1.00;14.10;93954.00;;;;7386928;19;20133;-73
2023/05/14 07:50:14;;;;;;;7.97;7.05;;;12.90;1.00;13.80;93957.00;;;;7386824;19;20512;-73
2023/05/14 07:52:41;;;;;;;7.15;6.28;;;13.00;1.00;13.90;93952.00;;;;7382478;19;20608;-73
2023/05/14 07:55:16;;;;;;;6.90;6.28;;;13.10;1.00;14.90;93953.00;;;;7383554;19;20133;-74
2023/05/14 07:57:50;;;;;;;8.00;6.32;;;13.40;1.00;15.30;93954.00;;;;7386296;19;20587;-74
2023/05/14 08:00:18;;;;;;;7.80;6.65;;;13.70;99.90;15.30;93900.00;;;;7385928;19;20234;-73
2023/05/14 08:03:06;;;;;;;8.45;6.50;;;13.90;99.90;15.80;93946.00;;;;7386065;19;21833;-74
2023/05/14 08:05:40;;;;;;;7.30;6.43;;;14.40;99.90;16.20;93929.00;;;;7384178;19;20125;-73
2023/05/14 08:08:15;;;;;;;14.95;6.72;;;14.70;99.90;16.10;93927.00;;;;7383777;19;20179;-73
2023/05/14 08:10:42;;;;;;;7.68;6.55;;;15.00;99.90;16.90;93904.00;;;;7384336;19;20648;-73
2023/05/14 08:13:17;;;;;;;10.25;6.38;;;15.30;99.90;17.50;93936.00;;;;7387303;19;20132;-73
2023/05/14 08:15:45;;;;;;;7.25;5.95;;;15.70;99.90;17.60;93947.00;;;;7387093;19;20223;-74
2023/05/14 08:18:19;;;;;;;8.43;5.95;;;15.90;72.20;17.40;93948.00;;;;7380757;19;20148;-74
2023/05/14 08:20:48;;;;;;;9.50;6.03;;;16.10;93.00;17.40;93945.00;;;;7385613;19;20165;-74
2023/05/14 08:23:22;;;;;;;6.63;6.03;;;16.10;25.40;17.30;93937.00;;;;7386750;19;20608;-74
2023/05/14 08:25:50;;;;;;;7.05;6.28;;;16.10;1.00;17.00;93946.00;;;;7386583;19;20132;-74
2023/05/14 08:28:24;;;;;;;9.43;5.55;;;15.90;16.40;17.20;93950.00;;;;7386030;19;20134;-74
2023/05/14 08:30:51;;;;;;;8.35;6.28;;;15.80;37.00;17.80;93939.00;;;;7382633;19;20178;-74
2023/05/14 08:33:25;;;;;;;6.20;5.60;;;15.90;99.90;17.80;93936.00;;;;7387355;19;20224;-74
2023/05/14 08:35:53;;;;;;;5.30;4.80;;;16.20;26.10;17.80;93940.00;;;;7385487;19;20117;-73
2023/05/14 08:38:27;;;;;;;6.90;5.57;;;16.40;1.00;17.60;93916.00;;;;7386092;19;20128;-74
2023/05/14 08:41:05;;;;;;;6.72;5.45;;;16.30;1.00;17.70;93914.00;;;;7385435;19;20133;-73
2023/05/14 08:44:17;;;;;;;5.57;4.95;;;16.20;1.00;17.00;93952.00;;;;7384366;19;20159;-74
2023/05/14 08:46:53;;;;;;;5.20;4.68;;;16.10;1.00;17.10;93933.00;;;;7382912;19;20231;-74
2023/05/14 08:49:41;;;;;;;5.75;4.40;;;15.90;1.00;18.00;93921.00;;;;7386514;19;20138;-74
2023/05/14 08:52:21;;;;;;;5.40;4.90;;;16.20;1.00;19.20;93893.00;;;;7385484;19;20144;-74
2023/05/14 08:54:59;;;;;;;5.15;4.35;;;16.80;8.60;20.30;93915.00;;;;7386977;19;20129;-75
2023/05/14 08:57:34;;;;;;;4.55;3.75;;;17.40;1.00;20.60;93914.00;;;;7379174;19;20742;-75
2023/05/14 09:00:12;;;;;;;4.63;4.22;;;17.90;1.00;20.10;93915.00;;;;7382023;19;20149;-75
2023/05/14 09:02:41;;;;;;;3.30;2.95;;;18.20;1.00;19.70;93912.00;;;;7382526;19;20986;-75
2023/05/14 09:05:23;;;;;;;4.80;4.38;;;18.40;1.00;19.30;93911.00;;;;7384009;19;20470;-74
2023/05/14 09:07:58;;;;;;;5.47;4.40;;;18.10;1.00;19.10;93885.00;;;;7379167;19;20129;-74
2023/05/14 09:10:33;;;;;;;4.32;3.85;;;17.60;1.00;19.40;93901.00;;;;7383250;19;20619;-72
2023/05/14 09:13:08;;;;;;;4.07;3.65;;;17.60;1.00;20.80;93880.00;;;;7383933;19;20147;-72
2023/05/14 09:15:42;;;;;;;3.28;3.05;;;18.20;1.00;21.00;93906.00;;;;7382900;19;20148;-73
2023/05/14 09:18:16;;;;;;;3.47;3.17;;;18.80;1.00;20.70;93910.00;;;;7381616;19;20135;-72
2023/05/14 09:20:51;;;;;;;6.00;2.80;;;18.90;1.00;20.20;93915.00;;;;7382792;19;20196;-72
2023/05/14 09:23:18;;;;;;;5.07;4.63;;;18.70;1.00;19.40;93896.00;;;;7383726;19;20141;-73
2023/05/14 09:25:52;;;;;;;5.13;4.55;;;18.60;1.00;18.00;93926.00;;;;7379482;19;20152;-72
2023/05/14 09:28:23;;;;;;;5.43;4.68;;;17.70;1.00;17.00;93920.00;;;;7379097;19;20503;-72
2023/05/14 09:30:58;;;;;;;6.10;5.50;;;17.00;1.00;16.60;93945.00;;;;7377104;19;20128;-72
2023/05/14 09:33:32;;;;;;;8.00;5.63;;;16.10;1.00;16.00;93938.00;;;;7379344;19;20161;-71
2023/05/14 09:36:06;;;;;;;5.40;4.82;;;15.40;1.00;15.80;93922.00;;;;7381573;19;20524;-75
2023/05/14 09:38:40;;;;;;;5.60;5.00;;;15.00;1.00;16.10;93942.00;;;;7381058;19;20131;-75
2023/05/14 09:41:15;;;;;;;5.40;4.75;;;14.90;1.00;15.80;93913.00;;;;7380335;19;20152;-76
2023/05/14 09:43:43;;;;;;;6.72;4.80;;;15.00;1.00;15.40;93913.00;;;;7382846;19;20144;-76
2023/05/14 09:46:17;;;;;;;5.60;4.78;;;15.00;1.00;15.90;93942.00;;;;7381306;19;20154;-75
2023/05/14 09:48:45;;;;;;;4.85;4.40;;;15.10;1.00;16.20;93912.00;;;;7380952;19;20159;-76
2023/05/14 09:51:20;;;;;;;6.88;4.85;;;15.40;1.00;16.60;93896.00;;;;7381608;19;20152;-76
2023/05/14 09:53:47;;;;;;;6.15;4.60;;;15.50;1.00;17.90;93910.00;;;;7381915;19;20129;-75
2023/05/14 09:56:22;;;;;;;7.00;5.40;;;15.90;1.00;18.00;93905.00;;;;7379719;19;20121;-76
2023/05/14 09:58:49;;;;;;;5.28;4.75;;;16.30;1.00;17.30;93891.00;;;;7380815;19;20222;-75
2023/05/14 10:01:25;;;;;;;4.97;4.47;;;16.80;1.00;18.00;93910.00;;;;7381791;19;20148;-73
2023/05/14 10:04:09;;;;;;;6.18;4.45;;;17.10;1.00;18.90;93900.00;;;;7381613;19;20577;-74
2023/05/14 10:06:52;;;;;;;5.80;4.32;;;17.40;1.00;18.20;93906.00;;;;7382051;19;20148;-72
2023/05/14 10:09:28;;;;;;;5.93;4.43;;;17.60;1.00;18.90;93872.00;;;;7382604;19;20148;-73
2023/05/14 10:12:00;;;;;;;4.30;3.90;;;17.80;1.00;19.30;93904.00;;;;7383555;19;20144;-73
2023/05/14 10:14:48;;;;;;;4.43;4.03;;;18.10;1.00;18.60;93922.00;;;;7383390;19;20139;-73
2023/05/14 10:17:20;;;;;;;4.95;4.45;;;18.00;1.00;17.70;93946.00;;;;7380861;19;20148;-73
2023/05/14 10:19:57;;;;;;;4.88;4.38;;;17.70;1.00;16.70;93937.00;;;;7383208;19;20139;-73
2023/05/14 10:22:30;;;;;;;5.18;4.68;;;17.20;1.00;16.60;93939.00;;;;7384246;19;20131;-74
2023/05/14 10:25:05;;;;;;;5.30;4.40;;;16.60;1.00;15.80;93946.00;;;;7397385;19;20134;-75
2023/05/14 10:27:41;;;;;;;5.47;4.97;;;16.00;1.00;15.40;93949.00;;;;7396385;19;20204;-75
2023/05/14 10:30:23;;;;;;;4.97;4.18;;;15.30;1.00;15.00;93972.00;;;;7397040;19;20444;-74
2023/05/14 10:33:15;;;;;;;7.03;4.03;;;14.90;1.00;14.20;93966.00;;;;7395483;19;20177;-73
2023/05/14 10:36:05;;;;;;;6.85;5.15;;;14.40;1.00;13.50;93947.00;;;;7394867;19;20116;-73
2023/05/14 10:38:35;;;;;;;8.68;5.43;;;13.80;99.90;12.70;93947.00;;;;7396667;19;20146;-76
2023/05/14 10:41:16;;;;;;;7.80;5.53;;;13.20;99.90;12.50;93966.00;;;;7393954;19;20629;-76
2023/05/14 10:43:44;;;;;;;6.40;5.65;;;12.60;1.00;12.10;93956.00;;;;7395341;19;20140;-76
2023/05/14 10:46:17;;;;;;;12.60;6.18;;;12.40;25.50;12.50;93958.00;;;;7397378;19;20135;-76
2023/05/14 10:48:44;;;;;;;10.02;6.93;;;12.40;1.00;13.00;93937.00;;;;7394743;19;20572;-76
2023/05/14 10:51:21;;;;;;;9.20;7.03;;;12.50;1.00;13.50;93926.00;;;;7395651;19;20216;-77
2023/05/14 10:53:49;;;;;;;8.68;7.13;;;12.80;99.90;14.90;93924.00;;;;7394378;19;20129;-78
2023/05/14 10:56:22;;;;;;;10.40;7.03;;;13.40;99.90;16.40;93888.00;;;;7394547;19;20185;-76
2023/05/14 10:58:49;;;;;;;7.75;6.88;;;14.30;1.00;18.00;93868.00;;;;7392847;19;20154;-77
2023/05/14 11:01:23;;;;;;;5.82;5.32;;;15.40;1.00;19.50;93848.00;;;;7393907;19;20461;-75
2023/05/14 11:04:04;;;;;;;5.68;4.60;;;16.80;78.70;18.60;93861.00;;;;7392772;19;20153;-75
2023/05/14 11:06:46;;;;;;;5.68;4.40;;;18.00;1.00;16.10;93920.00;;;;7391439;19;20125;-75
2023/05/14 11:09:22;;;;;;;5.93;4.20;;;18.50;1.00;16.60;93901.00;;;;7392760;19;20151;-74
2023/05/14 11:11:50;;;;;;;4.97;4.30;;;18.00;1.00;16.00;93914.00;;;;7393780;19;20138;-74
2023/05/14 11:14:23;;;;;;;4.43;4.03;;;17.20;1.00;15.50;93926.00;;;;7390631;19;20148;-74
2023/05/14 11:16:57;;;;;;;5.40;4.13;;;16.70;1.00;15.30;93900.00;;;;7392765;19;20614;-74
2023/05/14 11:19:31;;;;;;;5.60;4.65;;;16.00;8.70;15.30;93915.00;;;;7393260;19;20482;-74
2023/05/14 11:22:06;;;;;;;4.50;4.05;;;15.60;1.00;14.80;93910.00;;;;7393808;19;20160;-74
2023/05/14 11:24:40;;;;;;;4.82;4.38;;;15.50;80.70;14.80;93875.00;;;;7393785;19;20159;-74
2023/05/14 11:27:14;;;;;;;5.25;4.75;;;15.50;99.90;15.30;93878.00;;;;7394650;19;20163;-73